sensor_id;sensor_type;location;lat;lon;timestamp;pressure;altitude;pressure_sealevel;temperature;humidity
62881;BME280;48969;49.934;8.596;2023-06-26T00:01:30;100431.25;;;22.87;67.32
62881;BME280;48969;49.934;8.596;2023-06-26T00:04:02;100426.88;;;22.86;66.98
62881;BME280;48969;49.934;8.596;2023-06-26T00:06:28;100424.84;;;22.88;66.59
62881;BME280;48969;49.934;8.596;2023-06-26T00:08:53;100425.00;;;22.94;65.69
62881;BME280;48969;49.934;8.596;2023-06-26T00:11:20;100429.56;;;22.86;66.09
62881;BME280;48969;49.934;8.596;2023-06-26T00:13:45;100425.69;;;22.88;65.78
62881;BME280;48969;49.934;8.596;2023-06-26T00:16:11;100415.53;;;22.90;65.51
62881;BME280;48969;49.934;8.596;2023-06-26T00:18:36;100425.31;;;22.91;65.44
62881;BME280;48969;49.934;8.596;2023-06-26T00:21:01;100413.97;;;22.96;64.38
62881;BME280;48969;49.934;8.596;2023-06-26T00:23:26;100419.59;;;22.86;63.11
62881;BME280;48969;49.934;8.596;2023-06-26T00:25:57;100419.03;;;22.43;64.26
62881;BME280;48969;49.934;8.596;2023-06-26T00:28:22;100424.25;;;22.37;65.15
62881;BME280;48969;49.934;8.596;2023-06-26T00:30:47;100421.88;;;22.09;65.42
62881;BME280;48969;49.934;8.596;2023-06-26T00:33:13;100431.00;;;22.08;66.28
62881;BME280;48969;49.934;8.596;2023-06-26T00:35:38;100431.34;;;22.21;66.18
62881;BME280;48969;49.934;8.596;2023-06-26T00:38:03;100432.19;;;22.30;66.17
62881;BME280;48969;49.934;8.596;2023-06-26T00:40:28;100428.81;;;22.03;65.69
62881;BME280;48969;49.934;8.596;2023-06-26T00:42:54;100428.63;;;22.13;65.73
62881;BME280;48969;49.934;8.596;2023-06-26T00:45:19;100427.13;;;22.02;65.90
62881;BME280;48969;49.934;8.596;2023-06-26T00:47:44;100440.91;;;21.66;67.68
62881;BME280;48969;49.934;8.596;2023-06-26T00:50:10;100439.06;;;21.67;67.82
62881;BME280;48969;49.934;8.596;2023-06-26T00:52:39;100440.84;;;21.42;68.74
62881;BME280;48969;49.934;8.596;2023-06-26T00:55:05;100433.34;;;21.27;69.33
62881;BME280;48969;49.934;8.596;2023-06-26T00:57:30;100442.00;;;20.97;72.47
62881;BME280;48969;49.934;8.596;2023-06-26T00:59:56;100445.66;;;20.61;75.08
62881;BME280;48969;49.934;8.596;2023-06-26T01:02:22;100435.00;;;20.34;75.84
62881;BME280;48969;49.934;8.596;2023-06-26T01:04:49;100438.09;;;20.21;75.27
62881;BME280;48969;49.934;8.596;2023-06-26T01:07:16;100428.66;;;20.17;73.84
62881;BME280;48969;49.934;8.596;2023-06-26T01:09:44;100435.88;;;20.16;73.29
62881;BME280;48969;49.934;8.596;2023-06-26T01:12:09;100434.03;;;20.17;72.67
62881;BME280;48969;49.934;8.596;2023-06-26T01:14:35;100425.63;;;20.20;72.42
62881;BME280;48969;49.934;8.596;2023-06-26T01:17:01;100421.16;;;20.29;71.85
62881;BME280;48969;49.934;8.596;2023-06-26T01:19:28;100429.09;;;20.30;72.22
62881;BME280;48969;49.934;8.596;2023-06-26T01:27:46;100419.97;;;20.05;73.96
62881;BME280;48969;49.934;8.596;2023-06-26T01:30:14;100416.50;;;19.95;74.77
62881;BME280;48969;49.934;8.596;2023-06-26T01:32:41;100413.75;;;19.87;75.29
62881;BME280;48969;49.934;8.596;2023-06-26T01:35:08;100413.91;;;19.85;75.30
62881;BME280;48969;49.934;8.596;2023-06-26T01:37:33;100417.34;;;19.77;75.50
62881;BME280;48969;49.934;8.596;2023-06-26T01:39:58;100407.47;;;19.68;76.19
62881;BME280;48969;49.934;8.596;2023-06-26T01:42:24;100408.38;;;19.59;77.15
62881;BME280;48969;49.934;8.596;2023-06-26T01:44:49;100415.25;;;19.53;77.71
62881;BME280;48969;49.934;8.596;2023-06-26T01:47:21;100420.47;;;19.55;77.52
62881;BME280;48969;49.934;8.596;2023-06-26T01:49:50;100412.31;;;19.47;77.63
62881;BME280;48969;49.934;8.596;2023-06-26T01:52:28;100414.81;;;19.30;78.69
62881;BME280;48969;49.934;8.596;2023-06-26T01:55:03;100410.50;;;19.19;79.44
62881;BME280;48969;49.934;8.596;2023-06-26T01:57:31;100412.78;;;19.14;79.97
62881;BME280;48969;49.934;8.596;2023-06-26T01:59:57;100406.47;;;19.06;79.81
62881;BME280;48969;49.934;8.596;2023-06-26T02:02:24;100413.28;;;19.00;80.05
62881;BME280;48969;49.934;8.596;2023-06-26T02:04:55;100404.78;;;19.05;79.40
62881;BME280;48969;49.934;8.596;2023-06-26T02:07:21;100403.03;;;19.13;78.93
62881;BME280;48969;49.934;8.596;2023-06-26T02:09:46;100412.03;;;19.22;78.96
62881;BME280;48969;49.934;8.596;2023-06-26T02:12:12;100412.59;;;19.26;79.33
62881;BME280;48969;49.934;8.596;2023-06-26T02:14:37;100412.72;;;19.24;79.37
62881;BME280;48969;49.934;8.596;2023-06-26T02:17:02;100409.78;;;19.17;79.31
62881;BME280;48969;49.934;8.596;2023-06-26T02:19:28;100411.94;;;19.14;79.42
62881;BME280;48969;49.934;8.596;2023-06-26T02:21:54;100410.69;;;19.08;79.73
62881;BME280;48969;49.934;8.596;2023-06-26T02:24:19;100414.66;;;19.04;80.27
62881;BME280;48969;49.934;8.596;2023-06-26T02:26:44;100418.38;;;19.03;80.24
62881;BME280;48969;49.934;8.596;2023-06-26T02:29:11;100420.22;;;19.02;80.61
62881;BME280;48969;49.934;8.596;2023-06-26T02:31:36;100409.03;;;18.97;80.78
62881;BME280;48969;49.934;8.596;2023-06-26T02:34:01;100403.72;;;18.88;81.00
62881;BME280;48969;49.934;8.596;2023-06-26T02:36:27;100406.56;;;18.76;81.20
62881;BME280;48969;49.934;8.596;2023-06-26T02:38:52;100404.63;;;18.69;81.86
62881;BME280;48969;49.934;8.596;2023-06-26T02:41:17;100412.09;;;18.65;81.76
62881;BME280;48969;49.934;8.596;2023-06-26T02:43:42;100410.56;;;18.63;81.73
62881;BME280;48969;49.934;8.596;2023-06-26T02:46:07;100418.34;;;18.66;81.55
62881;BME280;48969;49.934;8.596;2023-06-26T02:48:33;100416.50;;;18.66;81.62
62881;BME280;48969;49.934;8.596;2023-06-26T02:50:58;100415.66;;;18.66;81.23
62881;BME280;48969;49.934;8.596;2023-06-26T02:53:24;100407.84;;;18.72;80.49
62881;BME280;48969;49.934;8.596;2023-06-26T02:55:49;100410.81;;;18.79;80.22
62881;BME280;48969;49.934;8.596;2023-06-26T02:58:14;100408.81;;;18.91;79.48
62881;BME280;48969;49.934;8.596;2023-06-26T03:00:40;100401.97;;;18.96;79.26
62881;BME280;48969;49.934;8.596;2023-06-26T03:03:07;100408.38;;;18.86;79.32
62881;BME280;48969;49.934;8.596;2023-06-26T03:05:32;100407.56;;;18.85;80.06
62881;BME280;48969;49.934;8.596;2023-06-26T03:07:58;100407.88;;;19.10;79.20
62881;BME280;48969;49.934;8.596;2023-06-26T03:10:23;100408.59;;;19.48;79.00
62881;BME280;48969;49.934;8.596;2023-06-26T03:12:48;100411.13;;;19.77;77.99
62881;BME280;48969;49.934;8.596;2023-06-26T03:15:14;100404.31;;;19.82;76.34
62881;BME280;48969;49.934;8.596;2023-06-26T03:17:39;100404.94;;;20.02;76.00
62881;BME280;48969;49.934;8.596;2023-06-26T03:20:05;100403.66;;;19.89;74.46
62881;BME280;48969;49.934;8.596;2023-06-26T03:22:32;100411.31;;;19.75;75.28
62881;BME280;48969;49.934;8.596;2023-06-26T03:25:02;100409.03;;;19.89;74.19
62881;BME280;48969;49.934;8.596;2023-06-26T03:27:27;100409.31;;;19.50;75.67
62881;BME280;48969;49.934;8.596;2023-06-26T03:29:53;100417.13;;;19.43;77.20
62881;BME280;48969;49.934;8.596;2023-06-26T03:32:18;100408.59;;;19.75;77.08
62881;BME280;48969;49.934;8.596;2023-06-26T03:34:43;100417.53;;;19.94;75.86
62881;BME280;48969;49.934;8.596;2023-06-26T03:37:09;100420.72;;;20.15;75.00
62881;BME280;48969;49.934;8.596;2023-06-26T03:39:34;100414.59;;;20.31;74.31
62881;BME280;48969;49.934;8.596;2023-06-26T03:41:59;100410.28;;;20.38;72.55
62881;BME280;48969;49.934;8.596;2023-06-26T03:44:28;100416.22;;;20.42;73.32
62881;BME280;48969;49.934;8.596;2023-06-26T03:46:54;100413.41;;;20.52;72.66
62881;BME280;48969;49.934;8.596;2023-06-26T03:49:19;100410.25;;;20.56;71.56
62881;BME280;48969;49.934;8.596;2023-06-26T03:51:45;100413.16;;;20.63;72.23
62881;BME280;48969;49.934;8.596;2023-06-26T03:57:05;100414.72;;;20.21;72.91
62881;BME280;48969;49.934;8.596;2023-06-26T03:59:31;100423.31;;;20.25;73.13
62881;BME280;48969;49.934;8.596;2023-06-26T04:01:56;100417.56;;;20.02;73.78
62881;BME280;48969;49.934;8.596;2023-06-26T04:04:22;100425.78;;;20.18;74.05
62881;BME280;48969;49.934;8.596;2023-06-26T04:06:47;100418.84;;;20.34;73.59
62881;BME280;48969;49.934;8.596;2023-06-26T04:09:12;100415.66;;;20.38;72.46
62881;BME280;48969;49.934;8.596;2023-06-26T04:11:37;100422.84;;;20.30;73.14
62881;BME280;48969;49.934;8.596;2023-06-26T04:14:03;100420.28;;;20.46;73.30
62881;BME280;48969;49.934;8.596;2023-06-26T04:16:28;100419.84;;;20.33;73.45
62881;BME280;48969;49.934;8.596;2023-06-26T04:18:53;100424.41;;;20.32;74.24
62881;BME280;48969;49.934;8.596;2023-06-26T04:21:20;100431.47;;;20.15;74.82
62881;BME280;48969;49.934;8.596;2023-06-26T04:23:46;100433.38;;;20.23;74.55
62881;BME280;48969;49.934;8.596;2023-06-26T04:26:23;100436.06;;;20.23;75.47
62881;BME280;48969;49.934;8.596;2023-06-26T04:28:49;100429.47;;;20.35;74.32
62881;BME280;48969;49.934;8.596;2023-06-26T04:31:17;100426.31;;;20.48;74.26
62881;BME280;48969;49.934;8.596;2023-06-26T04:33:43;100418.69;;;20.61;74.11
62881;BME280;48969;49.934;8.596;2023-06-26T04:36:08;100413.38;;;20.70;73.69
62881;BME280;48969;49.934;8.596;2023-06-26T04:38:33;100411.09;;;20.83;74.18
62881;BME280;48969;49.934;8.596;2023-06-26T04:41:02;100411.66;;;20.95;73.49
62881;BME280;48969;49.934;8.596;2023-06-26T04:43:28;100408.28;;;20.93;71.84
62881;BME280;48969;49.934;8.596;2023-06-26T04:45:56;100418.22;;;21.00;72.00
62881;BME280;48969;49.934;8.596;2023-06-26T04:48:22;100418.81;;;21.12;72.75
62881;BME280;48969;49.934;8.596;2023-06-26T04:50:48;100425.53;;;21.16;71.56
62881;BME280;48969;49.934;8.596;2023-06-26T04:53:19;100421.53;;;21.20;72.03
62881;BME280;48969;49.934;8.596;2023-06-26T04:55:49;100421.66;;;21.10;71.31
62881;BME280;48969;49.934;8.596;2023-06-26T04:58:22;100423.75;;;20.91;71.74
62881;BME280;48969;49.934;8.596;2023-06-26T05:00:48;100430.59;;;21.11;71.94
62881;BME280;48969;49.934;8.596;2023-06-26T05:03:17;100431.47;;;21.20;72.34
62881;BME280;48969;49.934;8.596;2023-06-26T05:05:47;100420.38;;;21.31;72.80
62881;BME280;48969;49.934;8.596;2023-06-26T05:08:17;100419.44;;;21.40;72.17
62881;BME280;48969;49.934;8.596;2023-06-26T05:10:45;100421.81;;;21.51;72.83
62881;BME280;48969;49.934;8.596;2023-06-26T05:13:19;100419.81;;;21.54;72.34
62881;BME280;48969;49.934;8.596;2023-06-26T05:15:58;100410.19;;;21.59;71.73
62881;BME280;48969;49.934;8.596;2023-06-26T05:18:29;100412.06;;;21.59;71.49
62881;BME280;48969;49.934;8.596;2023-06-26T05:21:02;100417.63;;;21.65;71.91
62881;BME280;48969;49.934;8.596;2023-06-26T05:23:46;100415.78;;;21.66;72.38
62881;BME280;48969;49.934;8.596;2023-06-26T05:26:40;100426.38;;;21.51;72.93
62881;BME280;48969;49.934;8.596;2023-06-26T05:29:30;100411.72;;;21.54;72.13
62881;BME280;48969;49.934;8.596;2023-06-26T05:31:59;100414.25;;;21.63;71.59
62881;BME280;48969;49.934;8.596;2023-06-26T05:34:25;100417.78;;;21.64;71.92
62881;BME280;48969;49.934;8.596;2023-06-26T05:36:58;100410.91;;;21.69;72.06
62881;BME280;48969;49.934;8.596;2023-06-26T05:39:26;100420.53;;;21.88;72.04
62881;BME280;48969;49.934;8.596;2023-06-26T05:41:52;100417.47;;;21.91;71.71
62881;BME280;48969;49.934;8.596;2023-06-26T05:44:17;100418.84;;;21.96;71.45
62881;BME280;48969;49.934;8.596;2023-06-26T05:46:46;100420.53;;;22.05;71.50
62881;BME280;48969;49.934;8.596;2023-06-26T05:49:11;100420.22;;;22.08;71.33
62881;BME280;48969;49.934;8.596;2023-06-26T05:51:37;100420.53;;;22.05;71.55
62881;BME280;48969;49.934;8.596;2023-06-26T05:54:02;100417.84;;;21.97;72.24
62881;BME280;48969;49.934;8.596;2023-06-26T05:56:28;100417.81;;;22.05;72.27
62881;BME280;48969;49.934;8.596;2023-06-26T05:59:03;100420.34;;;22.14;73.02
62881;BME280;48969;49.934;8.596;2023-06-26T06:01:33;100424.94;;;22.30;72.29
62881;BME280;48969;49.934;8.596;2023-06-26T06:03:59;100411.44;;;22.39;71.20
62881;BME280;48969;49.934;8.596;2023-06-26T06:07:09;100418.50;;;22.48;71.35
62881;BME280;48969;49.934;8.596;2023-06-26T06:09:34;100406.84;;;22.47;71.47
62881;BME280;48969;49.934;8.596;2023-06-26T06:12:00;100405.16;;;22.46;71.63
62881;BME280;48969;49.934;8.596;2023-06-26T06:14:27;100407.69;;;22.40;71.73
62881;BME280;48969;49.934;8.596;2023-06-26T06:16:53;100421.69;;;22.60;71.95
62881;BME280;48969;49.934;8.596;2023-06-26T06:19:19;100411.41;;;22.55;69.91
62881;BME280;48969;49.934;8.596;2023-06-26T06:21:44;100412.06;;;22.57;69.58
62881;BME280;48969;49.934;8.596;2023-06-26T06:24:09;100417.63;;;22.64;69.53
62881;BME280;48969;49.934;8.596;2023-06-26T06:26:37;100412.03;;;22.73;69.40
62881;BME280;48969;49.934;8.596;2023-06-26T06:29:03;100414.72;;;22.82;69.39
62881;BME280;48969;49.934;8.596;2023-06-26T06:31:28;100399.63;;;22.87;67.56
62881;BME280;48969;49.934;8.596;2023-06-26T06:33:54;100386.78;;;22.97;66.32
62881;BME280;48969;49.934;8.596;2023-06-26T06:36:20;100382.38;;;22.96;65.28
62881;BME280;48969;49.934;8.596;2023-06-26T06:38:45;100382.88;;;22.92;64.30
62881;BME280;48969;49.934;8.596;2023-06-26T06:41:10;100391.34;;;22.97;64.87
62881;BME280;48969;49.934;8.596;2023-06-26T06:43:36;100370.13;;;23.17;63.02
62881;BME280;48969;49.934;8.596;2023-06-26T06:46:01;100365.34;;;23.27;62.96
62881;BME280;48969;49.934;8.596;2023-06-26T06:48:29;100376.47;;;23.32;61.86
62881;BME280;48969;49.934;8.596;2023-06-26T06:50:55;100373.06;;;23.38;61.53
62881;BME280;48969;49.934;8.596;2023-06-26T06:53:20;100375.81;;;23.30;61.53
62881;BME280;48969;49.934;8.596;2023-06-26T06:55:46;100374.59;;;23.33;62.64
62881;BME280;48969;49.934;8.596;2023-06-26T06:58:11;100370.13;;;23.48;61.88
62881;BME280;48969;49.934;8.596;2023-06-26T07:00:37;100363.59;;;23.66;60.84
62881;BME280;48969;49.934;8.596;2023-06-26T07:03:02;100372.03;;;23.63;61.48
62881;BME280;48969;49.934;8.596;2023-06-26T07:05:28;100376.72;;;23.77;62.11
62881;BME280;48969;49.934;8.596;2023-06-26T07:07:53;100375.69;;;23.78;61.06
62881;BME280;48969;49.934;8.596;2023-06-26T07:10:18;100371.34;;;23.92;61.27
62881;BME280;48969;49.934;8.596;2023-06-26T07:12:44;100361.66;;;23.97;60.29
62881;BME280;48969;49.934;8.596;2023-06-26T07:15:10;100344.00;;;24.01;58.32
62881;BME280;48969;49.934;8.596;2023-06-26T07:17:35;100354.78;;;24.10;58.49
62881;BME280;48969;49.934;8.596;2023-06-26T07:20:03;100355.72;;;24.17;59.12
62881;BME280;48969;49.934;8.596;2023-06-26T07:22:36;100357.41;;;24.18;58.38
62881;BME280;48969;49.934;8.596;2023-06-26T07:25:02;100343.22;;;24.31;57.71
62881;BME280;48969;49.934;8.596;2023-06-26T07:27:27;100355.84;;;24.38;58.62
62881;BME280;48969;49.934;8.596;2023-06-26T07:29:52;100357.47;;;24.48;59.11
62881;BME280;48969;49.934;8.596;2023-06-26T07:32:18;100369.13;;;24.63;59.96
62881;BME280;48969;49.934;8.596;2023-06-26T07:34:43;100367.38;;;24.70;59.20
62881;BME280;48969;49.934;8.596;2023-06-26T07:37:08;100355.97;;;24.75;57.63
62881;BME280;48969;49.934;8.596;2023-06-26T07:39:34;100367.28;;;24.93;57.62
62881;BME280;48969;49.934;8.596;2023-06-26T07:42:00;100356.44;;;24.93;55.33
62881;BME280;48969;49.934;8.596;2023-06-26T07:44:25;100359.00;;;25.01;56.34
62881;BME280;48969;49.934;8.596;2023-06-26T07:46:51;100358.53;;;25.13;56.61
62881;BME280;48969;49.934;8.596;2023-06-26T07:49:16;100360.22;;;25.14;56.63
62881;BME280;48969;49.934;8.596;2023-06-26T07:51:41;100360.66;;;25.17;56.01
62881;BME280;48969;49.934;8.596;2023-06-26T07:54:07;100365.44;;;25.30;56.02
62881;BME280;48969;49.934;8.596;2023-06-26T07:56:35;100366.69;;;25.28;56.34
62881;BME280;48969;49.934;8.596;2023-06-26T07:59:16;100374.16;;;25.25;56.22
62881;BME280;48969;49.934;8.596;2023-06-26T08:01:42;100358.22;;;25.37;55.30
62881;BME280;48969;49.934;8.596;2023-06-26T08:04:07;100361.31;;;25.34;55.72
62881;BME280;48969;49.934;8.596;2023-06-26T08:06:32;100341.81;;;25.45;53.28
62881;BME280;48969;49.934;8.596;2023-06-26T08:08:58;100353.00;;;25.57;53.93
62881;BME280;48969;49.934;8.596;2023-06-26T08:11:35;100358.28;;;25.65;54.29
62881;BME280;48969;49.934;8.596;2023-06-26T08:14:03;100361.97;;;25.79;54.26
62881;BME280;48969;49.934;8.596;2023-06-26T08:16:28;100362.03;;;25.86;55.08
62881;BME280;48969;49.934;8.596;2023-06-26T08:18:54;100353.38;;;25.97;53.37
62881;BME280;48969;49.934;8.596;2023-06-26T08:21:19;100351.88;;;26.16;53.42
62881;BME280;48969;49.934;8.596;2023-06-26T08:23:44;100352.41;;;26.33;52.50
62881;BME280;48969;49.934;8.596;2023-06-26T08:26:09;100352.06;;;26.15;52.12
62881;BME280;48969;49.934;8.596;2023-06-26T08:28:37;100362.94;;;26.15;52.84
62881;BME280;48969;49.934;8.596;2023-06-26T08:31:02;100348.69;;;26.13;53.08
62881;BME280;48969;49.934;8.596;2023-06-26T08:33:31;100348.16;;;25.96;52.50
62881;BME280;48969;49.934;8.596;2023-06-26T08:35:56;100366.84;;;26.05;53.90
62881;BME280;48969;49.934;8.596;2023-06-26T08:38:21;100364.00;;;26.20;53.99
62881;BME280;48969;49.934;8.596;2023-06-26T08:40:47;100369.44;;;26.48;53.54
62881;BME280;48969;49.934;8.596;2023-06-26T08:43:13;100372.09;;;26.70;53.89
62881;BME280;48969;49.934;8.596;2023-06-26T08:45:38;100353.31;;;26.82;52.12
62881;BME280;48969;49.934;8.596;2023-06-26T08:48:07;100365.16;;;26.61;53.07
62881;BME280;48969;49.934;8.596;2023-06-26T08:50:34;100363.41;;;26.53;52.77
62881;BME280;48969;49.934;8.596;2023-06-26T08:53:21;100356.84;;;26.41;51.55
62881;BME280;48969;49.934;8.596;2023-06-26T08:55:49;100369.00;;;26.45;52.52
62881;BME280;48969;49.934;8.596;2023-06-26T08:58:17;100366.31;;;26.52;52.89
62881;BME280;48969;49.934;8.596;2023-06-26T09:00:42;100351.97;;;26.58;51.52
62881;BME280;48969;49.934;8.596;2023-06-26T09:03:09;100367.16;;;26.80;53.69
62881;BME280;48969;49.934;8.596;2023-06-26T09:05:35;100319.03;;;26.81;49.67
62881;BME280;48969;49.934;8.596;2023-06-26T09:08:01;100332.66;;;26.87;50.72
62881;BME280;48969;49.934;8.596;2023-06-26T09:10:27;100341.41;;;26.83;50.31
62881;BME280;48969;49.934;8.596;2023-06-26T09:12:55;100333.09;;;26.98;50.57
62881;BME280;48969;49.934;8.596;2023-06-26T09:15:22;100338.88;;;26.75;50.81
62881;BME280;48969;49.934;8.596;2023-06-26T09:17:48;100332.50;;;26.61;49.30
62881;BME280;48969;49.934;8.596;2023-06-26T09:20:14;100345.50;;;26.65;51.34
62881;BME280;48969;49.934;8.596;2023-06-26T09:22:42;100313.84;;;26.99;48.66
62881;BME280;48969;49.934;8.596;2023-06-26T09:25:09;100332.31;;;27.10;49.76
62881;BME280;48969;49.934;8.596;2023-06-26T09:27:35;100335.25;;;27.16;49.15
62881;BME280;48969;49.934;8.596;2023-06-26T09:30:05;100322.78;;;27.41;48.44
62881;BME280;48969;49.934;8.596;2023-06-26T09:32:35;100351.09;;;27.47;50.37
62881;BME280;48969;49.934;8.596;2023-06-26T09:35:02;100332.66;;;27.56;48.60
62881;BME280;48969;49.934;8.596;2023-06-26T09:37:27;100343.56;;;27.62;49.15
62881;BME280;48969;49.934;8.596;2023-06-26T09:39:53;100349.28;;;27.87;49.23
62881;BME280;48969;49.934;8.596;2023-06-26T09:42:19;100328.31;;;27.88;47.55
62881;BME280;48969;49.934;8.596;2023-06-26T09:44:45;100328.06;;;28.09;47.63
62881;BME280;48969;49.934;8.596;2023-06-26T09:47:11;100337.53;;;27.93;48.96
62881;BME280;48969;49.934;8.596;2023-06-26T09:49:41;100352.41;;;28.04;50.06
62881;BME280;48969;49.934;8.596;2023-06-26T09:52:06;100335.22;;;28.10;48.28
62881;BME280;48969;49.934;8.596;2023-06-26T09:54:34;100316.78;;;28.12;47.17
62881;BME280;48969;49.934;8.596;2023-06-26T09:57:13;100313.44;;;27.97;46.51
62881;BME280;48969;49.934;8.596;2023-06-26T09:59:41;100322.41;;;28.24;47.60
62881;BME280;48969;49.934;8.596;2023-06-26T10:02:07;100327.00;;;28.30;47.46
62881;BME280;48969;49.934;8.596;2023-06-26T10:04:34;100332.06;;;28.20;47.94
62881;BME280;48969;49.934;8.596;2023-06-26T10:07:01;100332.06;;;28.07;47.62
62881;BME280;48969;49.934;8.596;2023-06-26T10:09:30;100336.25;;;28.23;47.97
62881;BME280;48969;49.934;8.596;2023-06-26T10:12:03;100343.78;;;28.14;47.78
62881;BME280;48969;49.934;8.596;2023-06-26T10:14:35;100355.34;;;28.03;48.99
62881;BME280;48969;49.934;8.596;2023-06-26T10:17:04;100347.78;;;27.85;48.22
62881;BME280;48969;49.934;8.596;2023-06-26T10:19:33;100351.38;;;27.92;49.05
62881;BME280;48969;49.934;8.596;2023-06-26T10:21:59;100363.50;;;27.89;49.96
62881;BME280;48969;49.934;8.596;2023-06-26T10:24:28;100366.66;;;28.33;49.83
62881;BME280;48969;49.934;8.596;2023-06-26T10:26:59;100346.06;;;28.44;48.49
62881;BME280;48969;49.934;8.596;2023-06-26T10:29:27;100354.41;;;28.75;49.81
62881;BME280;48969;49.934;8.596;2023-06-26T10:31:56;100353.31;;;28.90;48.00
62881;BME280;48969;49.934;8.596;2023-06-26T10:34:23;100358.56;;;28.85;48.68
62881;BME280;48969;49.934;8.596;2023-06-26T10:36:59;100359.19;;;28.87;48.63
62881;BME280;48969;49.934;8.596;2023-06-26T10:39:25;100348.91;;;28.82;47.15
62881;BME280;48969;49.934;8.596;2023-06-26T10:41:54;100353.78;;;28.67;48.60
62881;BME280;48969;49.934;8.596;2023-06-26T10:44:19;100351.25;;;28.78;48.12
62881;BME280;48969;49.934;8.596;2023-06-26T10:46:53;100349.66;;;28.44;48.11
62881;BME280;48969;49.934;8.596;2023-06-26T10:49:20;100366.66;;;28.40;50.38
62881;BME280;48969;49.934;8.596;2023-06-26T10:51:47;100362.44;;;28.57;49.71
62881;BME280;48969;49.934;8.596;2023-06-26T10:54:18;100361.78;;;28.62;49.49
62881;BME280;48969;49.934;8.596;2023-06-26T10:56:50;100335.53;;;28.74;46.80
62881;BME280;48969;49.934;8.596;2023-06-26T10:59:21;100349.84;;;28.63;48.20
62881;BME280;48969;49.934;8.596;2023-06-26T11:01:57;100347.44;;;28.86;48.28
62881;BME280;48969;49.934;8.596;2023-06-26T11:04:55;100338.13;;;29.01;46.16
62881;BME280;48969;49.934;8.596;2023-06-26T11:07:26;100340.31;;;29.30;45.68
62881;BME280;48969;49.934;8.596;2023-06-26T11:10:09;100327.00;;;29.79;45.42
62881;BME280;48969;49.934;8.596;2023-06-26T11:15:10;100309.28;;;30.69;43.78
62881;BME280;48969;49.934;8.596;2023-06-26T11:17:37;100302.38;;;30.66;43.44
62881;BME280;48969;49.934;8.596;2023-06-26T11:20:06;100284.81;;;30.37;43.05
62881;BME280;48969;49.934;8.596;2023-06-26T11:22:35;100293.22;;;30.17;44.02
62881;BME280;48969;49.934;8.596;2023-06-26T11:25:02;100311.81;;;29.83;44.72
62881;BME280;48969;49.934;8.596;2023-06-26T11:27:46;100317.34;;;29.76;44.92
62881;BME280;48969;49.934;8.596;2023-06-26T11:30:23;100306.19;;;29.46;44.45
62881;BME280;48969;49.934;8.596;2023-06-26T11:32:51;100324.28;;;29.47;45.55
62881;BME280;48969;49.934;8.596;2023-06-26T11:35:23;100329.03;;;29.58;45.63
62881;BME280;48969;49.934;8.596;2023-06-26T11:38:03;100337.41;;;29.25;46.84
62881;BME280;48969;49.934;8.596;2023-06-26T11:40:33;100318.19;;;29.00;45.69
62881;BME280;48969;49.934;8.596;2023-06-26T11:42:59;100343.38;;;29.02;47.36
62881;BME280;48969;49.934;8.596;2023-06-26T11:45:28;100349.00;;;29.21;47.42
62881;BME280;48969;49.934;8.596;2023-06-26T11:47:58;100334.47;;;29.27;45.12
62881;BME280;48969;49.934;8.596;2023-06-26T11:50:23;100302.88;;;29.37;43.24
62881;BME280;48969;49.934;8.596;2023-06-26T11:52:55;100291.09;;;29.44;42.85
62881;BME280;48969;49.934;8.596;2023-06-26T11:55:22;100334.81;;;29.37;45.03
62881;BME280;48969;49.934;8.596;2023-06-26T11:57:49;100348.94;;;29.34;46.09
62881;BME280;48969;49.934;8.596;2023-06-26T12:00:15;100305.94;;;29.54;42.85
62881;BME280;48969;49.934;8.596;2023-06-26T12:02:42;100298.00;;;29.46;41.75
62881;BME280;48969;49.934;8.596;2023-06-26T12:05:08;100311.16;;;29.56;41.90
62881;BME280;48969;49.934;8.596;2023-06-26T12:07:34;100302.88;;;29.69;41.50
62881;BME280;48969;49.934;8.596;2023-06-26T12:10:02;100301.69;;;29.90;40.89
62881;BME280;48969;49.934;8.596;2023-06-26T12:12:28;100305.31;;;29.84;40.16
62881;BME280;48969;49.934;8.596;2023-06-26T12:14:53;100293.53;;;29.84;39.65
62881;BME280;48969;49.934;8.596;2023-06-26T12:17:22;100294.44;;;29.77;40.02
62881;BME280;48969;49.934;8.596;2023-06-26T12:19:48;100268.75;;;29.78;37.97
62881;BME280;48969;49.934;8.596;2023-06-26T12:22:15;100288.50;;;29.80;38.91
62881;BME280;48969;49.934;8.596;2023-06-26T12:24:42;100316.56;;;29.69;40.24
62881;BME280;48969;49.934;8.596;2023-06-26T12:27:13;100313.81;;;29.69;39.82
62881;BME280;48969;49.934;8.596;2023-06-26T12:29:45;100302.91;;;29.63;39.47
62881;BME280;48969;49.934;8.596;2023-06-26T12:32:11;100314.84;;;29.43;40.26
62881;BME280;48969;49.934;8.596;2023-06-26T12:34:38;100296.59;;;29.37;39.23
62881;BME280;48969;49.934;8.596;2023-06-26T12:37:12;100303.13;;;29.36;39.89
62881;BME280;48969;49.934;8.596;2023-06-26T12:39:53;100312.88;;;29.50;40.71
62881;BME280;48969;49.934;8.596;2023-06-26T12:42:25;100295.88;;;29.48;39.47
62881;BME280;48969;49.934;8.596;2023-06-26T12:44:51;100311.09;;;29.69;40.21
62881;BME280;48969;49.934;8.596;2023-06-26T12:47:24;100301.91;;;29.57;39.81
62881;BME280;48969;49.934;8.596;2023-06-26T12:49:50;100307.47;;;29.44;39.85
62881;BME280;48969;49.934;8.596;2023-06-26T12:52:20;100289.34;;;29.24;39.44
62881;BME280;48969;49.934;8.596;2023-06-26T12:54:52;100283.97;;;29.43;39.64
62881;BME280;48969;49.934;8.596;2023-06-26T12:57:17;100272.66;;;29.32;38.41
62881;BME280;48969;49.934;8.596;2023-06-26T12:59:45;100292.78;;;29.45;39.27
62881;BME280;48969;49.934;8.596;2023-06-26T13:02:11;100292.66;;;29.26;39.27
62881;BME280;48969;49.934;8.596;2023-06-26T13:04:37;100268.81;;;29.15;37.77